Capitol Logistics 2566


KMIA
Miami International Airport
Miami, Florida, US
KMEM
Memphis International Airport
Memphis, Tennessee, US

Activity Log

Date Flight Route Aircraft Duration
10/14/2020 CPX2566 WINCO2 WINCO CHRRI SMELZ PATOY VUZ WASER VANZE2 B763 2h 23m
11/18/2019 CPX2566 WINCO2 WINCO CHRRI SMELZ PATOY VUZ WASER VANZE2 B744 2h 14m

Route Details

Aircraft Information
Primary: Boeing 747-400BCF
Backup: Boeing 767-300BDSF
Date Restrictions
Between:Nov 16, 2019
Dec 31, 2019
Route Data
Distance: 748nm
Sched. Duration: 2h 12m
Avg. Duration: 2h 18m (+7m)
Times Flown: 2
Recm'd Route: WINCO2 WINCO CHRRI SMELZ PATOY VUZ WASER VANZE2
Planned Altitude: 34,000ft
Origin Wx: KMIA 190653Z 35003KT 10SM CLR 16/11 A3020 RMK AO2 SLP227 T01610111 $
Dest. Wx: KMEM 190654Z 20006KT 10SM BKN070 OVC090 10/M04 A3013 RMK AO2 SLP203 T01001039 $
Notes: SEASONAL FLIGHT | FEDEX SURGE OPS CONTRACT

Financial History
Total Freight: 341,243lbs
Average Load: 170,622lbs/flt
Fuel Used: 69,592lbs
Avg. Fuel Used: 34,796lbs/flt
Fuel Expense: $85,598
Avg. Fuel Expense: $42,799
Avg. Fuel Cost: $1.23/lbs
Total Gross Income: $644,949
Pilot Pay: $498
Total Expenses: $69,759
Total Revenue: $488,432
Average Revenue: $322,474.63